sensor_id;sensor_type;location;lat;lon;timestamp;P1;durP1;ratioP1;P2;durP2;ratioP2
3783;SDS011;1907;49.238;9.262;2022-12-20T00:01:14;19.37;;;17.17;;
3783;SDS011;1907;49.238;9.262;2022-12-20T00:03:51;18.43;;;16.07;;
3783;SDS011;1907;49.238;9.262;2022-12-20T00:06:18;28.23;;;19.37;;
3783;SDS011;1907;49.238;9.262;2022-12-20T00:08:44;21.47;;;16.40;;
3783;SDS011;1907;49.238;9.262;2022-12-20T00:11:10;22.83;;;18.60;;
3783;SDS011;1907;49.238;9.262;2022-12-20T00:13:37;18.83;;;16.60;;
3783;SDS011;1907;49.238;9.262;2022-12-20T00:16:13;18.33;;;16.53;;
3783;SDS011;1907;49.238;9.262;2022-12-20T00:18:41;18.80;;;16.80;;
3783;SDS011;1907;49.238;9.262;2022-12-20T00:21:08;19.73;;;16.93;;
3783;SDS011;1907;49.238;9.262;2022-12-20T00:23:35;24.17;;;18.40;;
3783;SDS011;1907;49.238;9.262;2022-12-20T00:28:37;18.63;;;16.97;;
3783;SDS011;1907;49.238;9.262;2022-12-20T00:31:04;19.97;;;15.90;;
3783;SDS011;1907;49.238;9.262;2022-12-20T00:33:31;20.63;;;17.00;;
3783;SDS011;1907;49.238;9.262;2022-12-20T00:35:58;24.50;;;19.50;;
3783;SDS011;1907;49.238;9.262;2022-12-20T00:38:23;24.33;;;17.10;;
3783;SDS011;1907;49.238;9.262;2022-12-20T00:43:25;20.73;;;17.73;;
3783;SDS011;1907;49.238;9.262;2022-12-20T00:45:51;25.33;;;18.00;;
3783;SDS011;1907;49.238;9.262;2022-12-20T00:48:17;28.37;;;17.17;;
3783;SDS011;1907;49.238;9.262;2022-12-20T00:50:43;22.00;;;17.63;;
3783;SDS011;1907;49.238;9.262;2022-12-20T00:53:08;22.63;;;17.50;;
3783;SDS011;1907;49.238;9.262;2022-12-20T00:55:34;21.23;;;17.67;;
3783;SDS011;1907;49.238;9.262;2022-12-20T00:58:04;20.70;;;17.67;;
3783;SDS011;1907;49.238;9.262;2022-12-20T01:00:30;24.57;;;16.87;;
3783;SDS011;1907;49.238;9.262;2022-12-20T01:02:55;21.93;;;17.13;;
3783;SDS011;1907;49.238;9.262;2022-12-20T01:05:21;18.77;;;16.90;;
3783;SDS011;1907;49.238;9.262;2022-12-20T01:07:47;19.47;;;16.63;;
3783;SDS011;1907;49.238;9.262;2022-12-20T01:10:12;20.30;;;16.60;;
3783;SDS011;1907;49.238;9.262;2022-12-20T01:12:38;21.47;;;17.47;;
3783;SDS011;1907;49.238;9.262;2022-12-20T01:15:04;19.27;;;17.03;;
3783;SDS011;1907;49.238;9.262;2022-12-20T01:17:30;24.70;;;18.37;;
3783;SDS011;1907;49.238;9.262;2022-12-20T01:19:56;21.97;;;15.60;;
3783;SDS011;1907;49.238;9.262;2022-12-20T01:22:21;20.00;;;16.47;;
3783;SDS011;1907;49.238;9.262;2022-12-20T01:24:47;24.83;;;17.07;;
3783;SDS011;1907;49.238;9.262;2022-12-20T01:27:13;26.80;;;17.20;;
3783;SDS011;1907;49.238;9.262;2022-12-20T01:29:38;29.93;;;17.97;;
3783;SDS011;1907;49.238;9.262;2022-12-20T01:32:04;24.87;;;18.97;;
3783;SDS011;1907;49.238;9.262;2022-12-20T01:34:29;25.10;;;16.90;;
3783;SDS011;1907;49.238;9.262;2022-12-20T01:36:55;19.80;;;17.33;;
3783;SDS011;1907;49.238;9.262;2022-12-20T01:39:20;19.07;;;16.00;;
3783;SDS011;1907;49.238;9.262;2022-12-20T01:41:46;19.33;;;16.30;;
3783;SDS011;1907;49.238;9.262;2022-12-20T01:46:44;22.03;;;15.53;;
3783;SDS011;1907;49.238;9.262;2022-12-20T01:52:16;19.60;;;17.50;;
3783;SDS011;1907;49.238;9.262;2022-12-20T01:54:51;22.30;;;18.27;;
3783;SDS011;1907;49.238;9.262;2022-12-20T01:57:28;21.67;;;17.40;;
3783;SDS011;1907;49.238;9.262;2022-12-20T01:59:59;19.83;;;17.33;;
3783;SDS011;1907;49.238;9.262;2022-12-20T02:02:25;27.00;;;18.63;;
3783;SDS011;1907;49.238;9.262;2022-12-20T02:04:51;25.87;;;18.83;;
3783;SDS011;1907;49.238;9.262;2022-12-20T02:07:17;23.57;;;19.40;;
3783;SDS011;1907;49.238;9.262;2022-12-20T02:09:48;26.90;;;18.57;;
3783;SDS011;1907;49.238;9.262;2022-12-20T02:12:15;21.10;;;18.80;;
3783;SDS011;1907;49.238;9.262;2022-12-20T02:20:28;20.10;;;17.17;;
3783;SDS011;1907;49.238;9.262;2022-12-20T02:26:10;27.40;;;17.53;;
3783;SDS011;1907;49.238;9.262;2022-12-20T02:31:54;20.00;;;17.57;;
3783;SDS011;1907;49.238;9.262;2022-12-20T02:34:22;19.27;;;17.27;;
3783;SDS011;1907;49.238;9.262;2022-12-20T02:36:50;24.70;;;19.10;;
3783;SDS011;1907;49.238;9.262;2022-12-20T02:39:16;23.83;;;17.63;;
3783;SDS011;1907;49.238;9.262;2022-12-20T02:41:43;29.77;;;18.77;;
3783;SDS011;1907;49.238;9.262;2022-12-20T02:44:14;25.33;;;19.37;;
3783;SDS011;1907;49.238;9.262;2022-12-20T02:47:00;25.60;;;17.23;;
3783;SDS011;1907;49.238;9.262;2022-12-20T02:49:30;30.10;;;19.10;;
3783;SDS011;1907;49.238;9.262;2022-12-20T02:52:02;21.17;;;18.80;;
3783;SDS011;1907;49.238;9.262;2022-12-20T02:54:30;23.17;;;17.67;;
3783;SDS011;1907;49.238;9.262;2022-12-20T02:56:59;22.43;;;17.20;;
3783;SDS011;1907;49.238;9.262;2022-12-20T02:59:55;25.10;;;17.70;;
3783;SDS011;1907;49.238;9.262;2022-12-20T03:02:26;18.57;;;16.73;;
3783;SDS011;1907;49.238;9.262;2022-12-20T03:04:52;19.87;;;17.77;;
3783;SDS011;1907;49.238;9.262;2022-12-20T03:07:19;27.50;;;19.47;;
3783;SDS011;1907;49.238;9.262;2022-12-20T03:09:45;18.40;;;16.60;;
3783;SDS011;1907;49.238;9.262;2022-12-20T03:12:11;19.33;;;16.70;;
3783;SDS011;1907;49.238;9.262;2022-12-20T03:14:38;20.40;;;17.50;;
3783;SDS011;1907;49.238;9.262;2022-12-20T03:17:04;20.97;;;18.20;;
3783;SDS011;1907;49.238;9.262;2022-12-20T03:19:30;18.17;;;16.27;;
3783;SDS011;1907;49.238;9.262;2022-12-20T03:21:56;24.30;;;19.20;;
3783;SDS011;1907;49.238;9.262;2022-12-20T03:24:22;28.43;;;18.23;;
3783;SDS011;1907;49.238;9.262;2022-12-20T03:26:48;22.40;;;17.00;;
3783;SDS011;1907;49.238;9.262;2022-12-20T03:29:13;17.93;;;16.13;;
3783;SDS011;1907;49.238;9.262;2022-12-20T03:31:39;22.67;;;17.17;;
3783;SDS011;1907;49.238;9.262;2022-12-20T03:34:05;20.13;;;18.13;;
3783;SDS011;1907;49.238;9.262;2022-12-20T03:36:30;19.37;;;17.67;;
3783;SDS011;1907;49.238;9.262;2022-12-20T03:38:57;21.10;;;19.00;;
3783;SDS011;1907;49.238;9.262;2022-12-20T03:41:23;23.30;;;18.70;;
3783;SDS011;1907;49.238;9.262;2022-12-20T03:43:49;19.27;;;16.60;;
3783;SDS011;1907;49.238;9.262;2022-12-20T03:46:14;26.13;;;16.30;;
3783;SDS011;1907;49.238;9.262;2022-12-20T03:48:40;19.37;;;17.37;;
3783;SDS011;1907;49.238;9.262;2022-12-20T03:51:06;22.20;;;17.53;;
3783;SDS011;1907;49.238;9.262;2022-12-20T03:53:32;21.07;;;18.73;;
3783;SDS011;1907;49.238;9.262;2022-12-20T03:55:57;25.27;;;17.90;;
3783;SDS011;1907;49.238;9.262;2022-12-20T03:58:23;17.90;;;15.40;;
3783;SDS011;1907;49.238;9.262;2022-12-20T04:00:49;21.43;;;16.27;;
3783;SDS011;1907;49.238;9.262;2022-12-20T04:03:14;22.73;;;17.80;;
3783;SDS011;1907;49.238;9.262;2022-12-20T04:05:40;30.57;;;20.10;;
3783;SDS011;1907;49.238;9.262;2022-12-20T04:08:06;27.60;;;20.40;;
3783;SDS011;1907;49.238;9.262;2022-12-20T04:10:32;23.30;;;18.50;;
3783;SDS011;1907;49.238;9.262;2022-12-20T04:13:17;23.40;;;17.77;;
3783;SDS011;1907;49.238;9.262;2022-12-20T04:15:43;24.93;;;18.97;;
3783;SDS011;1907;49.238;9.262;2022-12-20T04:18:08;22.47;;;17.40;;
3783;SDS011;1907;49.238;9.262;2022-12-20T04:20:34;20.80;;;17.63;;
3783;SDS011;1907;49.238;9.262;2022-12-20T04:23:00;23.07;;;15.80;;
3783;SDS011;1907;49.238;9.262;2022-12-20T04:25:25;20.30;;;17.20;;
3783;SDS011;1907;49.238;9.262;2022-12-20T04:27:51;19.47;;;15.90;;
3783;SDS011;1907;49.238;9.262;2022-12-20T04:30:16;17.70;;;16.10;;
3783;SDS011;1907;49.238;9.262;2022-12-20T04:32:42;17.10;;;15.30;;
3783;SDS011;1907;49.238;9.262;2022-12-20T04:35:08;20.87;;;18.67;;
3783;SDS011;1907;49.238;9.262;2022-12-20T04:37:34;24.93;;;16.57;;
3783;SDS011;1907;49.238;9.262;2022-12-20T04:39:59;24.37;;;19.57;;
3783;SDS011;1907;49.238;9.262;2022-12-20T04:42:25;18.03;;;14.70;;
3783;SDS011;1907;49.238;9.262;2022-12-20T04:44:51;20.37;;;16.40;;
3783;SDS011;1907;49.238;9.262;2022-12-20T04:47:16;16.90;;;15.07;;
3783;SDS011;1907;49.238;9.262;2022-12-20T04:49:42;24.13;;;17.00;;
3783;SDS011;1907;49.238;9.262;2022-12-20T04:52:07;17.30;;;15.47;;
3783;SDS011;1907;49.238;9.262;2022-12-20T04:54:52;18.47;;;14.73;;
3783;SDS011;1907;49.238;9.262;2022-12-20T04:57:17;25.00;;;17.60;;
3783;SDS011;1907;49.238;9.262;2022-12-20T04:59:43;16.20;;;14.70;;
3783;SDS011;1907;49.238;9.262;2022-12-20T05:02:08;22.30;;;15.90;;
3783;SDS011;1907;49.238;9.262;2022-12-20T05:04:34;22.60;;;15.07;;
3783;SDS011;1907;49.238;9.262;2022-12-20T05:06:59;16.97;;;15.23;;
3783;SDS011;1907;49.238;9.262;2022-12-20T05:09:25;22.20;;;17.13;;
3783;SDS011;1907;49.238;9.262;2022-12-20T05:11:51;17.30;;;15.50;;
3783;SDS011;1907;49.238;9.262;2022-12-20T05:14:16;19.73;;;17.73;;
3783;SDS011;1907;49.238;9.262;2022-12-20T05:16:42;17.40;;;15.70;;
3783;SDS011;1907;49.238;9.262;2022-12-20T05:19:07;23.53;;;17.70;;
3783;SDS011;1907;49.238;9.262;2022-12-20T05:21:33;21.37;;;18.57;;
3783;SDS011;1907;49.238;9.262;2022-12-20T05:24:24;18.83;;;16.80;;
3783;SDS011;1907;49.238;9.262;2022-12-20T05:27:09;27.73;;;18.60;;
3783;SDS011;1907;49.238;9.262;2022-12-20T05:29:34;21.60;;;19.30;;
3783;SDS011;1907;49.238;9.262;2022-12-20T05:32:00;21.20;;;17.47;;
3783;SDS011;1907;49.238;9.262;2022-12-20T05:34:25;17.57;;;15.90;;
3783;SDS011;1907;49.238;9.262;2022-12-20T05:36:51;25.50;;;18.17;;
3783;SDS011;1907;49.238;9.262;2022-12-20T05:39:16;17.50;;;16.00;;
3783;SDS011;1907;49.238;9.262;2022-12-20T05:41:42;17.80;;;16.00;;
3783;SDS011;1907;49.238;9.262;2022-12-20T05:44:08;16.87;;;15.23;;
3783;SDS011;1907;49.238;9.262;2022-12-20T05:46:33;17.97;;;16.47;;
3783;SDS011;1907;49.238;9.262;2022-12-20T05:48:59;22.50;;;16.60;;
3783;SDS011;1907;49.238;9.262;2022-12-20T05:51:24;21.00;;;18.07;;
3783;SDS011;1907;49.238;9.262;2022-12-20T05:53:50;18.03;;;15.60;;
3783;SDS011;1907;49.238;9.262;2022-12-20T05:56:15;17.03;;;14.90;;
3783;SDS011;1907;49.238;9.262;2022-12-20T05:58:41;19.23;;;17.23;;
3783;SDS011;1907;49.238;9.262;2022-12-20T06:01:07;15.70;;;14.30;;
3783;SDS011;1907;49.238;9.262;2022-12-20T06:03:34;18.00;;;16.40;;
3783;SDS011;1907;49.238;9.262;2022-12-20T06:06:00;19.50;;;17.07;;
3783;SDS011;1907;49.238;9.262;2022-12-20T06:08:26;16.30;;;14.93;;
3783;SDS011;1907;49.238;9.262;2022-12-20T06:10:51;18.90;;;16.77;;
3783;SDS011;1907;49.238;9.262;2022-12-20T06:13:17;22.13;;;16.50;;
3783;SDS011;1907;49.238;9.262;2022-12-20T06:15:43;16.17;;;14.63;;
3783;SDS011;1907;49.238;9.262;2022-12-20T06:18:09;19.17;;;16.10;;
3783;SDS011;1907;49.238;9.262;2022-12-20T06:20:35;21.50;;;15.77;;
3783;SDS011;1907;49.238;9.262;2022-12-20T06:23:01;23.17;;;14.83;;
3783;SDS011;1907;49.238;9.262;2022-12-20T06:25:26;20.63;;;16.43;;
3783;SDS011;1907;49.238;9.262;2022-12-20T06:27:53;17.67;;;15.53;;
3783;SDS011;1907;49.238;9.262;2022-12-20T06:30:18;17.97;;;16.27;;
3783;SDS011;1907;49.238;9.262;2022-12-20T06:32:44;16.83;;;15.03;;
3783;SDS011;1907;49.238;9.262;2022-12-20T06:35:10;18.83;;;16.00;;
3783;SDS011;1907;49.238;9.262;2022-12-20T06:37:36;17.00;;;14.73;;
3783;SDS011;1907;49.238;9.262;2022-12-20T06:40:04;17.90;;;15.97;;
3783;SDS011;1907;49.238;9.262;2022-12-20T06:42:31;21.33;;;17.90;;
3783;SDS011;1907;49.238;9.262;2022-12-20T06:44:57;18.20;;;16.40;;
3783;SDS011;1907;49.238;9.262;2022-12-20T06:47:22;19.60;;;16.17;;
3783;SDS011;1907;49.238;9.262;2022-12-20T06:49:48;18.80;;;16.57;;
3783;SDS011;1907;49.238;9.262;2022-12-20T06:52:13;21.37;;;16.33;;
3783;SDS011;1907;49.238;9.262;2022-12-20T06:54:39;20.47;;;17.33;;
3783;SDS011;1907;49.238;9.262;2022-12-20T06:57:04;18.97;;;17.03;;
3783;SDS011;1907;49.238;9.262;2022-12-20T06:59:30;21.17;;;17.10;;
3783;SDS011;1907;49.238;9.262;2022-12-20T07:01:56;22.07;;;15.53;;
3783;SDS011;1907;49.238;9.262;2022-12-20T07:04:22;21.13;;;18.97;;
3783;SDS011;1907;49.238;9.262;2022-12-20T07:06:47;20.23;;;17.07;;
3783;SDS011;1907;49.238;9.262;2022-12-20T07:09:13;18.10;;;16.50;;
3783;SDS011;1907;49.238;9.262;2022-12-20T07:11:38;17.83;;;16.10;;
3783;SDS011;1907;49.238;9.262;2022-12-20T07:14:04;23.47;;;20.03;;
3783;SDS011;1907;49.238;9.262;2022-12-20T07:16:29;20.57;;;17.10;;
3783;SDS011;1907;49.238;9.262;2022-12-20T07:18:56;16.57;;;15.10;;
3783;SDS011;1907;49.238;9.262;2022-12-20T07:21:21;23.40;;;17.67;;
3783;SDS011;1907;49.238;9.262;2022-12-20T07:23:47;19.40;;;16.73;;
3783;SDS011;1907;49.238;9.262;2022-12-20T07:26:13;17.13;;;15.43;;
3783;SDS011;1907;49.238;9.262;2022-12-20T07:28:39;22.03;;;15.40;;
3783;SDS011;1907;49.238;9.262;2022-12-20T07:31:06;16.07;;;14.40;;
3783;SDS011;1907;49.238;9.262;2022-12-20T07:33:31;17.07;;;15.43;;
3783;SDS011;1907;49.238;9.262;2022-12-20T07:36:01;17.37;;;15.77;;
3783;SDS011;1907;49.238;9.262;2022-12-20T07:38:31;19.67;;;16.17;;
3783;SDS011;1907;49.238;9.262;2022-12-20T07:40:57;21.73;;;18.60;;
3783;SDS011;1907;49.238;9.262;2022-12-20T07:43:23;18.03;;;15.93;;
3783;SDS011;1907;49.238;9.262;2022-12-20T07:45:52;16.07;;;14.57;;
3783;SDS011;1907;49.238;9.262;2022-12-20T07:48:19;16.90;;;15.30;;
3783;SDS011;1907;49.238;9.262;2022-12-20T07:50:45;16.00;;;14.50;;
3783;SDS011;1907;49.238;9.262;2022-12-20T07:53:11;18.73;;;13.37;;
3783;SDS011;1907;49.238;9.262;2022-12-20T07:55:36;13.93;;;12.77;;
3783;SDS011;1907;49.238;9.262;2022-12-20T07:58:04;15.07;;;13.50;;
3783;SDS011;1907;49.238;9.262;2022-12-20T08:00:31;15.97;;;13.97;;
3783;SDS011;1907;49.238;9.262;2022-12-20T08:02:59;17.67;;;16.27;;
3783;SDS011;1907;49.238;9.262;2022-12-20T08:05:29;17.40;;;15.77;;
3783;SDS011;1907;49.238;9.262;2022-12-20T08:07:56;17.10;;;14.57;;
3783;SDS011;1907;49.238;9.262;2022-12-20T08:10:23;22.00;;;17.60;;
3783;SDS011;1907;49.238;9.262;2022-12-20T08:12:50;17.50;;;15.53;;
3783;SDS011;1907;49.238;9.262;2022-12-20T08:15:15;17.00;;;15.03;;
3783;SDS011;1907;49.238;9.262;2022-12-20T08:17:43;14.80;;;13.47;;
3783;SDS011;1907;49.238;9.262;2022-12-20T08:20:09;17.70;;;15.93;;
3783;SDS011;1907;49.238;9.262;2022-12-20T08:22:35;21.33;;;15.17;;
3783;SDS011;1907;49.238;9.262;2022-12-20T08:25:00;18.03;;;16.13;;
3783;SDS011;1907;49.238;9.262;2022-12-20T08:27:26;16.77;;;14.90;;
3783;SDS011;1907;49.238;9.262;2022-12-20T08:29:51;17.33;;;15.47;;
3783;SDS011;1907;49.238;9.262;2022-12-20T08:32:17;20.30;;;16.00;;
3783;SDS011;1907;49.238;9.262;2022-12-20T08:34:43;17.47;;;15.70;;
3783;SDS011;1907;49.238;9.262;2022-12-20T08:37:08;37.40;;;24.23;;
3783;SDS011;1907;49.238;9.262;2022-12-20T08:39:34;38.43;;;26.87;;
3783;SDS011;1907;49.238;9.262;2022-12-20T08:41:59;17.50;;;15.70;;
3783;SDS011;1907;49.238;9.262;2022-12-20T08:44:25;19.03;;;15.07;;
3783;SDS011;1907;49.238;9.262;2022-12-20T08:46:50;16.40;;;13.53;;
3783;SDS011;1907;49.238;9.262;2022-12-20T08:49:18;27.13;;;14.00;;
3783;SDS011;1907;49.238;9.262;2022-12-20T08:51:43;15.80;;;14.10;;
3783;SDS011;1907;49.238;9.262;2022-12-20T08:54:09;16.63;;;15.03;;
3783;SDS011;1907;49.238;9.262;2022-12-20T08:56:34;27.57;;;18.00;;
3783;SDS011;1907;49.238;9.262;2022-12-20T08:59:00;18.50;;;16.80;;
3783;SDS011;1907;49.238;9.262;2022-12-20T09:01:25;16.73;;;15.27;;
3783;SDS011;1907;49.238;9.262;2022-12-20T09:03:53;16.43;;;15.03;;
3783;SDS011;1907;49.238;9.262;2022-12-20T09:06:20;19.87;;;16.20;;
3783;SDS011;1907;49.238;9.262;2022-12-20T09:08:46;16.03;;;14.07;;
3783;SDS011;1907;49.238;9.262;2022-12-20T09:11:19;17.30;;;15.37;;
3783;SDS011;1907;49.238;9.262;2022-12-20T09:13:47;23.00;;;17.97;;
3783;SDS011;1907;49.238;9.262;2022-12-20T09:16:14;18.30;;;15.77;;
3783;SDS011;1907;49.238;9.262;2022-12-20T09:18:41;17.30;;;15.90;;
3783;SDS011;1907;49.238;9.262;2022-12-20T09:21:08;18.00;;;16.10;;
3783;SDS011;1907;49.238;9.262;2022-12-20T09:23:35;21.50;;;16.27;;
3783;SDS011;1907;49.238;9.262;2022-12-20T09:26:01;23.80;;;18.43;;
3783;SDS011;1907;49.238;9.262;2022-12-20T09:28:29;24.73;;;17.77;;
3783;SDS011;1907;49.238;9.262;2022-12-20T09:30:59;18.33;;;15.60;;
3783;SDS011;1907;49.238;9.262;2022-12-20T09:33:25;43.70;;;21.13;;
3783;SDS011;1907;49.238;9.262;2022-12-20T09:35:52;22.23;;;17.40;;
3783;SDS011;1907;49.238;9.262;2022-12-20T09:38:18;15.70;;;14.00;;
3783;SDS011;1907;49.238;9.262;2022-12-20T09:40:46;16.37;;;14.80;;
3783;SDS011;1907;49.238;9.262;2022-12-20T09:43:16;15.43;;;14.33;;
3783;SDS011;1907;49.238;9.262;2022-12-20T09:45:42;16.63;;;14.80;;
3783;SDS011;1907;49.238;9.262;2022-12-20T09:48:21;29.23;;;22.13;;
3783;SDS011;1907;49.238;9.262;2022-12-20T09:53:39;15.93;;;14.60;;
3783;SDS011;1907;49.238;9.262;2022-12-20T10:01:51;12.20;;;11.30;;
3783;SDS011;1907;49.238;9.262;2022-12-20T10:12:59;14.23;;;13.07;;
3783;SDS011;1907;49.238;9.262;2022-12-20T10:15:55;13.27;;;11.20;;
3783;SDS011;1907;49.238;9.262;2022-12-20T10:18:47;13.07;;;11.97;;
3783;SDS011;1907;49.238;9.262;2022-12-20T10:21:29;14.57;;;13.13;;
3783;SDS011;1907;49.238;9.262;2022-12-20T10:24:09;12.63;;;11.53;;
3783;SDS011;1907;49.238;9.262;2022-12-20T10:26:40;11.70;;;10.80;;
3783;SDS011;1907;49.238;9.262;2022-12-20T10:29:06;13.40;;;11.63;;
3783;SDS011;1907;49.238;9.262;2022-12-20T10:31:33;12.43;;;11.53;;
3783;SDS011;1907;49.238;9.262;2022-12-20T10:33:58;11.80;;;10.97;;
3783;SDS011;1907;49.238;9.262;2022-12-20T10:36:28;14.30;;;13.10;;
3783;SDS011;1907;49.238;9.262;2022-12-20T10:39:00;13.40;;;12.00;;
3783;SDS011;1907;49.238;9.262;2022-12-20T10:41:29;12.23;;;11.47;;
3783;SDS011;1907;49.238;9.262;2022-12-20T10:44:46;13.03;;;11.93;;
3783;SDS011;1907;49.238;9.262;2022-12-20T10:47:19;22.90;;;11.10;;
3783;SDS011;1907;49.238;9.262;2022-12-20T10:49:58;12.13;;;11.27;;
3783;SDS011;1907;49.238;9.262;2022-12-20T10:52:33;14.30;;;13.10;;
3783;SDS011;1907;49.238;9.262;2022-12-20T10:54:58;14.67;;;12.80;;
3783;SDS011;1907;49.238;9.262;2022-12-20T10:57:25;13.13;;;11.90;;
3783;SDS011;1907;49.238;9.262;2022-12-20T11:00:04;16.17;;;13.97;;
3783;SDS011;1907;49.238;9.262;2022-12-20T11:02:38;15.80;;;14.37;;
3783;SDS011;1907;49.238;9.262;2022-12-20T11:07:36;13.93;;;12.80;;
3783;SDS011;1907;49.238;9.262;2022-12-20T11:10:19;14.00;;;12.80;;
3783;SDS011;1907;49.238;9.262;2022-12-20T11:12:57;14.50;;;13.30;;
3783;SDS011;1907;49.238;9.262;2022-12-20T11:15:28;15.53;;;14.23;;
3783;SDS011;1907;49.238;9.262;2022-12-20T11:37:25;11.73;;;11.00;;
3783;SDS011;1907;49.238;9.262;2022-12-20T11:47:34;15.80;;;14.40;;
3783;SDS011;1907;49.238;9.262;2022-12-20T11:52:47;17.77;;;14.27;;
3783;SDS011;1907;49.238;9.262;2022-12-20T11:55:38;14.27;;;13.00;;
3783;SDS011;1907;49.238;9.262;2022-12-20T12:01:12;13.67;;;12.70;;
3783;SDS011;1907;49.238;9.262;2022-12-20T12:03:47;12.57;;;11.70;;
3783;SDS011;1907;49.238;9.262;2022-12-20T12:06:33;12.33;;;11.53;;
3783;SDS011;1907;49.238;9.262;2022-12-20T12:11:46;15.10;;;13.90;;
3783;SDS011;1907;49.238;9.262;2022-12-20T12:14:30;20.87;;;16.57;;
3783;SDS011;1907;49.238;9.262;2022-12-20T12:17:08;13.63;;;12.53;;
3783;SDS011;1907;49.238;9.262;2022-12-20T12:19:41;24.10;;;17.60;;
3783;SDS011;1907;49.238;9.262;2022-12-20T12:22:12;28.20;;;20.27;;
3783;SDS011;1907;49.238;9.262;2022-12-20T12:24:45;28.40;;;19.07;;
3783;SDS011;1907;49.238;9.262;2022-12-20T12:27:22;20.57;;;18.00;;
3783;SDS011;1907;49.238;9.262;2022-12-20T12:29:51;16.83;;;15.30;;
3783;SDS011;1907;49.238;9.262;2022-12-20T12:34:58;17.07;;;15.47;;
3783;SDS011;1907;49.238;9.262;2022-12-20T12:40:17;13.87;;;12.67;;
3783;SDS011;1907;49.238;9.262;2022-12-20T12:45:57;13.43;;;12.50;;
3783;SDS011;1907;49.238;9.262;2022-12-20T12:48:31;14.63;;;13.27;;
3783;SDS011;1907;49.238;9.262;2022-12-20T12:51:03;14.30;;;12.67;;
3783;SDS011;1907;49.238;9.262;2022-12-20T12:55:55;17.83;;;16.37;;
3783;SDS011;1907;49.238;9.262;2022-12-20T13:00:54;16.70;;;15.20;;
3783;SDS011;1907;49.238;9.262;2022-12-20T13:19:38;16.00;;;14.60;;
3783;SDS011;1907;49.238;9.262;2022-12-20T13:22:20;13.90;;;12.60;;
3783;SDS011;1907;49.238;9.262;2022-12-20T13:24:55;17.17;;;15.40;;
3783;SDS011;1907;49.238;9.262;2022-12-20T13:38:34;17.40;;;15.97;;
3783;SDS011;1907;49.238;9.262;2022-12-20T13:49:28;18.50;;;16.90;;
3783;SDS011;1907;49.238;9.262;2022-12-20T13:52:05;15.83;;;14.60;;
3783;SDS011;1907;49.238;9.262;2022-12-20T13:54:42;16.67;;;15.10;;
3783;SDS011;1907;49.238;9.262;2022-12-20T13:57:14;16.20;;;14.10;;
3783;SDS011;1907;49.238;9.262;2022-12-20T13:59:48;17.20;;;15.60;;
3783;SDS011;1907;49.238;9.262;2022-12-20T14:02:23;18.80;;;17.10;;
3783;SDS011;1907;49.238;9.262;2022-12-20T14:04:56;21.43;;;19.20;;
3783;SDS011;1907;49.238;9.262;2022-12-20T14:07:32;20.93;;;18.70;;
3783;SDS011;1907;49.238;9.262;2022-12-20T14:09:59;29.40;;;19.67;;
3783;SDS011;1907;49.238;9.262;2022-12-20T14:12:27;20.50;;;18.53;;
3783;SDS011;1907;49.238;9.262;2022-12-20T14:14:53;30.03;;;23.20;;
3783;SDS011;1907;49.238;9.262;2022-12-20T14:22:34;22.13;;;19.57;;
3783;SDS011;1907;49.238;9.262;2022-12-20T14:25:01;22.70;;;19.57;;
3783;SDS011;1907;49.238;9.262;2022-12-20T14:27:32;17.30;;;15.80;;
3783;SDS011;1907;49.238;9.262;2022-12-20T14:30:00;18.00;;;16.40;;
3783;SDS011;1907;49.238;9.262;2022-12-20T14:32:26;19.00;;;17.30;;
3783;SDS011;1907;49.238;9.262;2022-12-20T14:34:52;16.33;;;15.00;;
3783;SDS011;1907;49.238;9.262;2022-12-20T14:37:33;18.03;;;16.40;;
3783;SDS011;1907;49.238;9.262;2022-12-20T14:42:34;18.30;;;16.40;;
3783;SDS011;1907;49.238;9.262;2022-12-20T14:47:33;22.37;;;20.03;;
3783;SDS011;1907;49.238;9.262;2022-12-20T14:50:01;21.03;;;18.80;;
3783;SDS011;1907;49.238;9.262;2022-12-20T14:52:40;20.83;;;18.53;;
3783;SDS011;1907;49.238;9.262;2022-12-20T14:55:07;16.80;;;15.10;;
3783;SDS011;1907;49.238;9.262;2022-12-20T14:58:00;12.97;;;11.93;;
3783;SDS011;1907;49.238;9.262;2022-12-20T15:00:30;12.23;;;11.43;;
3783;SDS011;1907;49.238;9.262;2022-12-20T15:03:16;13.60;;;12.80;;
3783;SDS011;1907;49.238;9.262;2022-12-20T15:05:47;13.53;;;12.20;;
3783;SDS011;1907;49.238;9.262;2022-12-20T15:08:21;18.73;;;13.17;;
3783;SDS011;1907;49.238;9.262;2022-12-20T15:15:56;15.63;;;14.10;;
3783;SDS011;1907;49.238;9.262;2022-12-20T15:18:23;18.77;;;16.87;;
3783;SDS011;1907;49.238;9.262;2022-12-20T15:20:56;18.90;;;15.20;;
3783;SDS011;1907;49.238;9.262;2022-12-20T15:23:25;18.23;;;16.60;;
3783;SDS011;1907;49.238;9.262;2022-12-20T15:25:50;21.67;;;18.20;;
3783;SDS011;1907;49.238;9.262;2022-12-20T15:28:17;20.33;;;18.63;;
3783;SDS011;1907;49.238;9.262;2022-12-20T15:30:49;24.60;;;19.00;;
3783;SDS011;1907;49.238;9.262;2022-12-20T15:33:19;37.00;;;24.20;;
3783;SDS011;1907;49.238;9.262;2022-12-20T15:35:47;29.93;;;21.43;;
3783;SDS011;1907;49.238;9.262;2022-12-20T15:38:14;29.50;;;22.23;;
3783;SDS011;1907;49.238;9.262;2022-12-20T15:40:42;24.80;;;20.50;;
3783;SDS011;1907;49.238;9.262;2022-12-20T15:43:11;25.33;;;20.33;;
3783;SDS011;1907;49.238;9.262;2022-12-20T15:45:38;24.07;;;21.53;;
3783;SDS011;1907;49.238;9.262;2022-12-20T15:48:04;20.50;;;18.53;;
3783;SDS011;1907;49.238;9.262;2022-12-20T15:50:33;21.40;;;18.40;;
3783;SDS011;1907;49.238;9.262;2022-12-20T15:52:58;20.17;;;18.07;;
3783;SDS011;1907;49.238;9.262;2022-12-20T15:55:24;19.63;;;17.90;;
3783;SDS011;1907;49.238;9.262;2022-12-20T15:57:50;17.93;;;16.37;;
3783;SDS011;1907;49.238;9.262;2022-12-20T16:00:16;17.73;;;16.23;;
3783;SDS011;1907;49.238;9.262;2022-12-20T16:02:41;21.53;;;18.00;;
3783;SDS011;1907;49.238;9.262;2022-12-20T16:05:08;20.53;;;18.50;;
3783;SDS011;1907;49.238;9.262;2022-12-20T16:07:37;18.33;;;16.83;;
3783;SDS011;1907;49.238;9.262;2022-12-20T16:10:03;19.53;;;17.33;;
3783;SDS011;1907;49.238;9.262;2022-12-20T16:12:31;19.83;;;17.70;;
3783;SDS011;1907;49.238;9.262;2022-12-20T16:14:58;19.13;;;17.20;;
3783;SDS011;1907;49.238;9.262;2022-12-20T16:17:23;20.00;;;17.93;;
3783;SDS011;1907;49.238;9.262;2022-12-20T16:19:49;21.30;;;18.50;;
3783;SDS011;1907;49.238;9.262;2022-12-20T16:22:15;27.23;;;19.37;;
3783;SDS011;1907;49.238;9.262;2022-12-20T16:24:43;19.60;;;17.90;;
3783;SDS011;1907;49.238;9.262;2022-12-20T16:27:09;29.30;;;18.87;;
3783;SDS011;1907;49.238;9.262;2022-12-20T16:29:35;21.73;;;19.63;;
3783;SDS011;1907;49.238;9.262;2022-12-20T16:32:00;26.90;;;22.30;;
3783;SDS011;1907;49.238;9.262;2022-12-20T16:34:26;29.43;;;23.97;;
3783;SDS011;1907;49.238;9.262;2022-12-20T16:36:51;29.03;;;25.30;;
3783;SDS011;1907;49.238;9.262;2022-12-20T16:39:17;25.27;;;22.87;;
3783;SDS011;1907;49.238;9.262;2022-12-20T16:41:43;31.13;;;25.53;;
3783;SDS011;1907;49.238;9.262;2022-12-20T16:44:13;37.87;;;32.00;;
3783;SDS011;1907;49.238;9.262;2022-12-20T16:46:40;26.40;;;23.70;;
3783;SDS011;1907;49.238;9.262;2022-12-20T16:49:07;37.57;;;28.83;;
3783;SDS011;1907;49.238;9.262;2022-12-20T16:54:14;22.67;;;20.53;;
3783;SDS011;1907;49.238;9.262;2022-12-20T16:56:42;24.80;;;22.30;;
3783;SDS011;1907;49.238;9.262;2022-12-20T16:59:08;23.47;;;21.07;;
3783;SDS011;1907;49.238;9.262;2022-12-20T17:01:35;20.10;;;18.43;;
3783;SDS011;1907;49.238;9.262;2022-12-20T17:04:03;19.40;;;17.80;;
3783;SDS011;1907;49.238;9.262;2022-12-20T17:06:30;22.33;;;19.67;;
3783;SDS011;1907;49.238;9.262;2022-12-20T17:08:56;27.13;;;24.33;;
3783;SDS011;1907;49.238;9.262;2022-12-20T17:11:23;30.97;;;25.77;;
3783;SDS011;1907;49.238;9.262;2022-12-20T17:13:54;47.60;;;37.27;;
3783;SDS011;1907;49.238;9.262;2022-12-20T17:16:20;56.03;;;41.30;;
3783;SDS011;1907;49.238;9.262;2022-12-20T17:18:47;41.73;;;33.57;;
3783;SDS011;1907;49.238;9.262;2022-12-20T17:23:45;44.33;;;33.47;;